createdAt,value
2019-03-23T00:01:05.243Z,84.90
2019-03-23T00:04:17.031Z,87.70
2019-03-23T00:07:23.924Z,87.50
2019-03-23T00:10:53.860Z,86.70
2019-03-23T00:17:12.831Z,87.20
2019-03-23T04:30:54.686Z,96.50
2019-03-23T08:50:37.099Z,96.80
2019-03-23T09:31:01.242Z,96.50
2019-03-23T15:09:29.791Z,92.40
2019-03-23T15:23:09.082Z,92.50
2019-03-23T15:46:33.636Z,92.80
2019-03-23T15:49:05.201Z,92.80
2019-03-23T15:51:36.875Z,92.80
2019-03-23T15:54:41.676Z,92.80
2019-03-23T15:57:16.150Z,92.70
2019-03-23T16:00:06.653Z,93.00
2019-03-23T16:02:49.343Z,93.00
2019-03-23T16:05:41.364Z,93.10
2019-03-23T16:08:36.171Z,93.10
2019-03-23T16:11:31.690Z,93.10
2019-03-23T17:15:19.992Z,94.30
2019-03-23T17:20:42.536Z,94.30
2019-03-23T17:23:14.369Z,94.40
2019-03-23T17:25:48.918Z,94.50
2019-03-23T17:28:39.416Z,94.70
2019-03-23T17:31:17.306Z,94.80
2019-03-23T18:19:31.018Z,96.50
2019-03-23T20:18:17.853Z,96.80
2019-03-23T20:33:25.444Z,96.60
2019-03-23T20:36:56.679Z,96.60
2019-03-23T20:44:51.141Z,96.70
2019-03-23T20:48:38.083Z,96.50
2019-03-23T20:54:57.867Z,96.50
2019-03-23T20:57:41.390Z,96.50
2019-03-23T21:01:14.611Z,96.50
2019-03-23T21:04:29.736Z,96.40
2019-03-23T21:11:05.797Z,96.40
2019-03-23T21:13:39.974Z,96.30
2019-03-23T21:16:19.759Z,96.40
2019-03-23T21:19:17.532Z,96.40
2019-03-23T21:22:12.700Z,96.40
2019-03-23T21:25:05.936Z,96.50
2019-03-23T21:28:41.518Z,96.50
2019-03-23T21:31:08.950Z,96.20
2019-03-23T21:34:13.968Z,96.10
2019-03-23T21:37:25.308Z,96.10
2019-03-23T21:40:24.738Z,96.70
2019-03-23T21:43:17.285Z,96.80
2019-03-23T21:46:15.664Z,96.60
2019-03-23T21:49:15.236Z,96.50
2019-03-23T21:52:31.485Z,96.50
2019-03-23T21:58:51.799Z,96.60
2019-03-23T22:01:44.462Z,96.70
2019-03-23T22:05:00.306Z,96.50
2019-03-23T22:08:02.469Z,96.40
2019-03-23T22:10:48.873Z,96.30
2019-03-23T22:14:52.255Z,96.30
2019-03-23T22:22:11.379Z,96.20
2019-03-23T22:26:33.863Z,96.20
2019-03-23T22:30:02.715Z,96.30
2019-03-23T22:33:54.003Z,96.20
2019-03-23T22:52:44.568Z,96.10
2019-03-23T22:56:20.856Z,96.10
2019-03-23T22:58:59.878Z,96.20
2019-03-23T23:02:35.091Z,96.20
2019-03-23T23:06:44.745Z,96.30
2019-03-23T23:10:05.801Z,96.40
2019-03-23T23:14:01.390Z,96.50
2019-03-23T23:17:36.420Z,96.40
2019-03-23T23:20:51.329Z,96.40
2019-03-23T23:28:02.805Z,96.40
2019-03-23T23:31:42.665Z,96.30
2019-03-23T23:38:38.354Z,96.30
2019-03-23T23:41:33.596Z,96.30
2019-03-23T23:44:12.214Z,96.30
2019-03-23T23:47:43.558Z,96.50
2019-03-23T23:50:21.323Z,96.60
2019-03-23T23:53:22.406Z,96.70
2019-03-23T23:55:56.317Z,96.60
2019-03-23T23:58:33.675Z,97.00
